sensor_id;sensor_type;location;lat;lon;timestamp;pressure;altitude;pressure_sealevel;temperature;humidity
37856;BME280;23694;43.274;26.924;2022-10-16T00:00:41;99667.41;;;9.80;76.06
37856;BME280;23694;43.274;26.924;2022-10-16T00:03:08;99664.81;;;9.80;75.76
37856;BME280;23694;43.274;26.924;2022-10-16T00:05:42;99669.66;;;9.71;75.65
37856;BME280;23694;43.274;26.924;2022-10-16T00:08:12;99666.19;;;9.70;75.90
37856;BME280;23694;43.274;26.924;2022-10-16T00:10:39;99674.88;;;9.71;75.52
37856;BME280;23694;43.274;26.924;2022-10-16T00:13:06;99683.97;;;9.64;76.27
37856;BME280;23694;43.274;26.924;2022-10-16T00:15:34;99678.41;;;9.54;76.65
37856;BME280;23694;43.274;26.924;2022-10-16T00:18:03;99685.41;;;9.53;76.58
37856;BME280;23694;43.274;26.924;2022-10-16T00:20:29;99677.94;;;9.46;75.63
37856;BME280;23694;43.274;26.924;2022-10-16T00:22:57;99689.00;;;9.51;75.95
37856;BME280;23694;43.274;26.924;2022-10-16T00:25:23;99689.94;;;9.50;76.28
37856;BME280;23694;43.274;26.924;2022-10-16T00:27:49;99692.63;;;9.48;76.22
37856;BME280;23694;43.274;26.924;2022-10-16T00:30:15;99698.88;;;9.46;75.42
37856;BME280;23694;43.274;26.924;2022-10-16T00:32:41;99692.03;;;9.43;75.74
37856;BME280;23694;43.274;26.924;2022-10-16T00:35:07;99691.88;;;9.46;75.44
37856;BME280;23694;43.274;26.924;2022-10-16T00:37:33;99690.66;;;9.36;74.94
37856;BME280;23694;43.274;26.924;2022-10-16T00:39:59;99700.34;;;9.34;75.26
37856;BME280;23694;43.274;26.924;2022-10-16T00:42:26;99699.41;;;9.35;75.08
37856;BME280;23694;43.274;26.924;2022-10-16T00:44:54;99701.97;;;9.37;75.22
37856;BME280;23694;43.274;26.924;2022-10-16T00:47:27;99703.13;;;9.31;74.86
37856;BME280;23694;43.274;26.924;2022-10-16T00:50:39;99696.44;;;9.26;75.25
37856;BME280;23694;43.274;26.924;2022-10-16T00:52:48;99700.81;;;9.25;74.66
37856;BME280;23694;43.274;26.924;2022-10-16T00:55:16;99702.66;;;9.23;74.87
37856;BME280;23694;43.274;26.924;2022-10-16T00:57:43;99703.44;;;9.25;73.77
37856;BME280;23694;43.274;26.924;2022-10-16T01:00:12;99706.19;;;9.22;73.57
37856;BME280;23694;43.274;26.924;2022-10-16T01:02:38;99698.59;;;9.17;73.88
37856;BME280;23694;43.274;26.924;2022-10-16T01:05:05;99700.53;;;9.14;73.97
37856;BME280;23694;43.274;26.924;2022-10-16T01:07:58;99702.06;;;9.18;73.46
37856;BME280;23694;43.274;26.924;2022-10-16T01:10:40;99699.34;;;9.02;73.70
37856;BME280;23694;43.274;26.924;2022-10-16T01:13:12;99698.19;;;9.08;73.75
37856;BME280;23694;43.274;26.924;2022-10-16T01:16:09;99700.88;;;9.06;73.41
37856;BME280;23694;43.274;26.924;2022-10-16T01:18:52;99700.78;;;9.08;73.02
37856;BME280;23694;43.274;26.924;2022-10-16T01:21:31;99709.63;;;9.05;73.38
37856;BME280;23694;43.274;26.924;2022-10-16T01:24:03;99712.31;;;9.04;73.08
37856;BME280;23694;43.274;26.924;2022-10-16T01:31:42;99718.53;;;9.01;72.55
37856;BME280;23694;43.274;26.924;2022-10-16T01:34:15;99723.47;;;9.07;71.58
37856;BME280;23694;43.274;26.924;2022-10-16T01:36:50;99725.47;;;9.02;71.67
37856;BME280;23694;43.274;26.924;2022-10-16T01:39:20;99721.16;;;9.01;71.89
37856;BME280;23694;43.274;26.924;2022-10-16T01:44:33;99725.31;;;8.88;71.59
37856;BME280;23694;43.274;26.924;2022-10-16T01:47:03;99726.06;;;8.90;71.74
37856;BME280;23694;43.274;26.924;2022-10-16T01:49:33;99716.47;;;8.90;71.50
37856;BME280;23694;43.274;26.924;2022-10-16T01:52:04;99725.31;;;8.88;72.40
37856;BME280;23694;43.274;26.924;2022-10-16T01:54:33;99728.75;;;8.88;72.18
37856;BME280;23694;43.274;26.924;2022-10-16T01:57:01;99727.16;;;8.86;71.94
37856;BME280;23694;43.274;26.924;2022-10-16T01:59:31;99728.91;;;8.85;71.98
37856;BME280;23694;43.274;26.924;2022-10-16T02:02:00;99735.44;;;8.77;72.14
37856;BME280;23694;43.274;26.924;2022-10-16T02:04:34;99732.53;;;8.83;71.74
37856;BME280;23694;43.274;26.924;2022-10-16T02:07:02;99729.59;;;8.72;72.65
37856;BME280;23694;43.274;26.924;2022-10-16T02:09:30;99728.81;;;8.70;72.51
37856;BME280;23694;43.274;26.924;2022-10-16T02:12:01;99725.13;;;8.74;72.27
37856;BME280;23694;43.274;26.924;2022-10-16T02:14:29;99720.13;;;8.69;72.14
37856;BME280;23694;43.274;26.924;2022-10-16T02:16:56;99726.41;;;8.65;72.65
37856;BME280;23694;43.274;26.924;2022-10-16T02:19:22;99728.03;;;8.68;72.87
37856;BME280;23694;43.274;26.924;2022-10-16T02:21:52;99726.91;;;8.73;72.30
37856;BME280;23694;43.274;26.924;2022-10-16T02:27:34;99729.94;;;8.64;71.74
37856;BME280;23694;43.274;26.924;2022-10-16T02:30:08;99731.25;;;8.55;73.00
37856;BME280;23694;43.274;26.924;2022-10-16T02:32:38;99732.72;;;8.61;72.93
37856;BME280;23694;43.274;26.924;2022-10-16T02:35:07;99732.72;;;8.61;72.46
37856;BME280;23694;43.274;26.924;2022-10-16T02:37:34;99732.16;;;8.54;72.80
37856;BME280;23694;43.274;26.924;2022-10-16T02:40:02;99733.16;;;8.52;71.95
37856;BME280;23694;43.274;26.924;2022-10-16T02:42:36;99735.13;;;8.47;72.60
37856;BME280;23694;43.274;26.924;2022-10-16T02:45:04;99731.69;;;8.46;72.60
37856;BME280;23694;43.274;26.924;2022-10-16T02:47:30;99728.25;;;8.44;72.89
37856;BME280;23694;43.274;26.924;2022-10-16T02:49:56;99730.75;;;8.47;72.28
37856;BME280;23694;43.274;26.924;2022-10-16T02:52:22;99737.66;;;8.48;73.01
37856;BME280;23694;43.274;26.924;2022-10-16T02:54:49;99744.06;;;8.41;72.50
37856;BME280;23694;43.274;26.924;2022-10-16T02:57:15;99739.75;;;8.40;72.52
37856;BME280;23694;43.274;26.924;2022-10-16T02:59:41;99743.44;;;8.36;72.36
37856;BME280;23694;43.274;26.924;2022-10-16T03:02:08;99745.13;;;8.37;72.57
37856;BME280;23694;43.274;26.924;2022-10-16T03:04:34;99746.81;;;8.38;72.33
37856;BME280;23694;43.274;26.924;2022-10-16T03:07:00;99741.66;;;8.37;72.57
37856;BME280;23694;43.274;26.924;2022-10-16T03:09:26;99753.94;;;8.35;72.61
37856;BME280;23694;43.274;26.924;2022-10-16T03:11:52;99752.97;;;8.37;73.03
37856;BME280;23694;43.274;26.924;2022-10-16T03:14:19;99758.44;;;8.31;73.26
37856;BME280;23694;43.274;26.924;2022-10-16T03:16:45;99755.19;;;8.26;72.98
37856;BME280;23694;43.274;26.924;2022-10-16T03:19:11;99748.28;;;8.25;73.09
37856;BME280;23694;43.274;26.924;2022-10-16T03:21:37;99749.19;;;8.24;73.12
37856;BME280;23694;43.274;26.924;2022-10-16T03:24:03;99749.25;;;8.22;73.28
37856;BME280;23694;43.274;26.924;2022-10-16T03:26:29;99754.19;;;8.28;72.91
37856;BME280;23694;43.274;26.924;2022-10-16T03:28:55;99754.97;;;8.31;73.06
37856;BME280;23694;43.274;26.924;2022-10-16T03:31:21;99754.56;;;8.21;72.87
37856;BME280;23694;43.274;26.924;2022-10-16T03:33:48;99754.63;;;8.19;73.60
37856;BME280;23694;43.274;26.924;2022-10-16T03:36:14;99750.88;;;8.25;72.86
37856;BME280;23694;43.274;26.924;2022-10-16T03:38:40;99749.81;;;8.29;72.45
37856;BME280;23694;43.274;26.924;2022-10-16T03:41:06;99754.06;;;8.32;72.26
37856;BME280;23694;43.274;26.924;2022-10-16T03:43:33;99756.66;;;8.32;72.32
37856;BME280;23694;43.274;26.924;2022-10-16T03:45:59;99755.56;;;8.37;72.10
37856;BME280;23694;43.274;26.924;2022-10-16T03:48:27;99754.59;;;8.40;71.34
37856;BME280;23694;43.274;26.924;2022-10-16T03:50:53;99764.56;;;8.30;72.40
37856;BME280;23694;43.274;26.924;2022-10-16T03:53:19;99759.16;;;8.35;71.33
37856;BME280;23694;43.274;26.924;2022-10-16T03:55:45;99754.06;;;8.32;71.44
37856;BME280;23694;43.274;26.924;2022-10-16T03:58:11;99761.97;;;8.30;71.52
37856;BME280;23694;43.274;26.924;2022-10-16T04:00:44;99759.94;;;8.37;71.43
37856;BME280;23694;43.274;26.924;2022-10-16T04:03:11;99755.72;;;8.34;71.99
37856;BME280;23694;43.274;26.924;2022-10-16T04:05:37;99759.94;;;8.37;70.75
37856;BME280;23694;43.274;26.924;2022-10-16T04:08:04;99754.06;;;8.32;71.10
37856;BME280;23694;43.274;26.924;2022-10-16T04:10:30;99760.00;;;8.35;71.33
37856;BME280;23694;43.274;26.924;2022-10-16T04:12:56;99751.88;;;8.22;71.11
37856;BME280;23694;43.274;26.924;2022-10-16T04:15:23;99753.56;;;8.23;71.66
37856;BME280;23694;43.274;26.924;2022-10-16T04:17:49;99748.81;;;8.33;70.97
37856;BME280;23694;43.274;26.924;2022-10-16T04:20:16;99756.88;;;8.27;71.81
37856;BME280;23694;43.274;26.924;2022-10-16T04:22:43;99762.19;;;8.25;71.36
37856;BME280;23694;43.274;26.924;2022-10-16T04:25:10;99753.44;;;8.26;71.35
37856;BME280;23694;43.274;26.924;2022-10-16T04:27:37;99745.75;;;8.23;71.58
37856;BME280;23694;43.274;26.924;2022-10-16T04:30:04;99757.88;;;8.24;71.61
37856;BME280;23694;43.274;26.924;2022-10-16T04:32:30;99758.44;;;8.31;71.53
37856;BME280;23694;43.274;26.924;2022-10-16T04:34:57;99764.38;;;8.35;71.30
37856;BME280;23694;43.274;26.924;2022-10-16T04:37:26;99764.34;;;8.55;69.95
37856;BME280;23694;43.274;26.924;2022-10-16T04:39:53;99770.09;;;8.80;69.32
37856;BME280;23694;43.274;26.924;2022-10-16T04:42:20;99774.00;;;9.25;67.70
37856;BME280;23694;43.274;26.924;2022-10-16T04:44:47;99768.53;;;9.64;66.10
37856;BME280;23694;43.274;26.924;2022-10-16T04:47:13;99773.59;;;10.17;64.33
37856;BME280;23694;43.274;26.924;2022-10-16T04:49:39;99768.00;;;10.72;61.70
37856;BME280;23694;43.274;26.924;2022-10-16T04:52:06;99774.63;;;11.25;59.24
37856;BME280;23694;43.274;26.924;2022-10-16T04:54:32;99777.81;;;11.30;58.75
37856;BME280;23694;43.274;26.924;2022-10-16T04:56:58;99782.47;;;11.55;58.15
37856;BME280;23694;43.274;26.924;2022-10-16T04:59:24;99783.69;;;12.22;56.75
37856;BME280;23694;43.274;26.924;2022-10-16T05:01:50;99787.09;;;13.21;53.90
37856;BME280;23694;43.274;26.924;2022-10-16T05:04:16;99781.94;;;14.22;50.49
37856;BME280;23694;43.274;26.924;2022-10-16T05:06:42;99784.53;;;15.21;47.83
37856;BME280;23694;43.274;26.924;2022-10-16T05:09:09;99783.84;;;16.11;45.35
37856;BME280;23694;43.274;26.924;2022-10-16T05:11:35;99786.56;;;16.88;42.93
37856;BME280;23694;43.274;26.924;2022-10-16T05:14:01;99789.75;;;17.46;41.37
37856;BME280;23694;43.274;26.924;2022-10-16T05:16:27;99800.91;;;18.23;39.48
37856;BME280;23694;43.274;26.924;2022-10-16T05:18:54;99798.78;;;18.88;37.30
37856;BME280;23694;43.274;26.924;2022-10-16T05:21:20;99797.84;;;19.47;36.09
37856;BME280;23694;43.274;26.924;2022-10-16T05:23:46;99799.06;;;20.01;34.94
37856;BME280;23694;43.274;26.924;2022-10-16T05:26:12;99805.50;;;20.54;34.15
37856;BME280;23694;43.274;26.924;2022-10-16T05:28:39;99804.91;;;20.88;33.33
37856;BME280;23694;43.274;26.924;2022-10-16T05:31:08;99810.16;;;21.43;32.30
37856;BME280;23694;43.274;26.924;2022-10-16T05:33:35;99816.78;;;22.00;31.15
37856;BME280;23694;43.274;26.924;2022-10-16T05:36:03;99822.16;;;22.26;30.50
37856;BME280;23694;43.274;26.924;2022-10-16T05:38:29;99827.88;;;22.73;29.68
37856;BME280;23694;43.274;26.924;2022-10-16T05:40:55;99829.72;;;23.07;29.22
37856;BME280;23694;43.274;26.924;2022-10-16T05:43:22;99834.81;;;23.43;28.27
37856;BME280;23694;43.274;26.924;2022-10-16T05:46:04;99835.56;;;23.11;28.52
37856;BME280;23694;43.274;26.924;2022-10-16T05:48:30;99840.94;;;23.27;28.33
37856;BME280;23694;43.274;26.924;2022-10-16T05:50:58;99850.03;;;22.84;28.99
37856;BME280;23694;43.274;26.924;2022-10-16T05:53:26;99844.22;;;22.10;30.28
37856;BME280;23694;43.274;26.924;2022-10-16T05:55:53;99850.56;;;22.09;30.26
37856;BME280;23694;43.274;26.924;2022-10-16T05:58:19;99844.56;;;21.36;31.68
37856;BME280;23694;43.274;26.924;2022-10-16T06:00:53;99852.28;;;21.12;32.56
37856;BME280;23694;43.274;26.924;2022-10-16T06:03:19;99857.69;;;21.47;31.71
37856;BME280;23694;43.274;26.924;2022-10-16T06:05:45;99861.34;;;20.17;33.63
37856;BME280;23694;43.274;26.924;2022-10-16T06:08:11;99860.03;;;19.25;35.82
37856;BME280;23694;43.274;26.924;2022-10-16T06:10:37;99856.09;;;18.18;37.86
37856;BME280;23694;43.274;26.924;2022-10-16T06:13:03;99860.19;;;17.81;39.29
37856;BME280;23694;43.274;26.924;2022-10-16T06:15:29;99860.50;;;17.55;39.91
37856;BME280;23694;43.274;26.924;2022-10-16T06:17:55;99862.41;;;17.64;40.28
37856;BME280;23694;43.274;26.924;2022-10-16T06:20:21;99864.91;;;17.77;39.75
37856;BME280;23694;43.274;26.924;2022-10-16T06:22:47;99867.56;;;17.98;39.58
37856;BME280;23694;43.274;26.924;2022-10-16T06:25:13;99867.75;;;18.06;39.53
37856;BME280;23694;43.274;26.924;2022-10-16T06:27:40;99875.00;;;18.04;38.88
37856;BME280;23694;43.274;26.924;2022-10-16T06:30:07;99882.50;;;17.99;38.94
37856;BME280;23694;43.274;26.924;2022-10-16T06:32:33;99877.78;;;17.38;39.17
37856;BME280;23694;43.274;26.924;2022-10-16T06:34:59;99883.88;;;16.85;40.15
37856;BME280;23694;43.274;26.924;2022-10-16T06:37:26;99885.19;;;16.57;41.33
37856;BME280;23694;43.274;26.924;2022-10-16T06:39:52;99878.06;;;16.35;41.71
37856;BME280;23694;43.274;26.924;2022-10-16T06:42:19;99884.28;;;16.23;42.10
37856;BME280;23694;43.274;26.924;2022-10-16T06:44:45;99886.63;;;15.92;43.28
37856;BME280;23694;43.274;26.924;2022-10-16T06:47:11;99887.63;;;15.67;44.09
37856;BME280;23694;43.274;26.924;2022-10-16T06:49:37;99895.03;;;15.97;44.01
37856;BME280;23694;43.274;26.924;2022-10-16T06:52:03;99906.56;;;15.61;44.04
37856;BME280;23694;43.274;26.924;2022-10-16T06:54:29;99918.25;;;15.70;44.29
37856;BME280;23694;43.274;26.924;2022-10-16T06:56:55;99911.22;;;15.21;45.27
37856;BME280;23694;43.274;26.924;2022-10-16T06:59:22;99915.53;;;15.22;46.02
37856;BME280;23694;43.274;26.924;2022-10-16T07:01:48;99913.22;;;15.17;46.72
37856;BME280;23694;43.274;26.924;2022-10-16T07:04:14;99913.78;;;15.10;46.19
37856;BME280;23694;43.274;26.924;2022-10-16T07:06:40;99918.53;;;15.05;46.48
37856;BME280;23694;43.274;26.924;2022-10-16T07:09:11;99926.59;;;14.65;47.10
37856;BME280;23694;43.274;26.924;2022-10-16T07:11:39;99926.66;;;14.89;46.58
37856;BME280;23694;43.274;26.924;2022-10-16T07:14:14;99925.00;;;15.01;47.17
37856;BME280;23694;43.274;26.924;2022-10-16T07:16:41;99927.00;;;14.72;49.16
37856;BME280;23694;43.274;26.924;2022-10-16T07:19:08;99927.13;;;13.92;52.34
37856;BME280;23694;43.274;26.924;2022-10-16T07:21:34;99929.53;;;13.56;54.35
37856;BME280;23694;43.274;26.924;2022-10-16T07:24:05;99928.28;;;13.88;53.22
37856;BME280;23694;43.274;26.924;2022-10-16T07:26:34;99925.66;;;14.53;51.37
37856;BME280;23694;43.274;26.924;2022-10-16T07:29:00;99929.53;;;14.99;49.28
37856;BME280;23694;43.274;26.924;2022-10-16T07:31:26;99930.72;;;15.31;46.49
37856;BME280;23694;43.274;26.924;2022-10-16T07:33:53;99925.03;;;15.48;44.29
37856;BME280;23694;43.274;26.924;2022-10-16T07:36:20;99923.88;;;15.16;44.83
37856;BME280;23694;43.274;26.924;2022-10-16T07:38:46;99922.97;;;15.41;45.35
37856;BME280;23694;43.274;26.924;2022-10-16T07:41:15;99914.56;;;15.83;42.95
37856;BME280;23694;43.274;26.924;2022-10-16T07:43:50;99915.75;;;15.79;42.55
37856;BME280;23694;43.274;26.924;2022-10-16T07:46:17;99913.13;;;15.79;42.74
37856;BME280;23694;43.274;26.924;2022-10-16T07:48:43;99914.09;;;15.42;42.05
37856;BME280;23694;43.274;26.924;2022-10-16T07:51:15;99917.41;;;15.57;42.32
37856;BME280;23694;43.274;26.924;2022-10-16T07:53:41;99919.09;;;15.70;41.76
37856;BME280;23694;43.274;26.924;2022-10-16T07:56:08;99917.22;;;15.83;41.35
37856;BME280;23694;43.274;26.924;2022-10-16T07:58:35;99919.44;;;16.01;42.03
37856;BME280;23694;43.274;26.924;2022-10-16T08:01:06;99926.06;;;15.71;44.29
37856;BME280;23694;43.274;26.924;2022-10-16T08:03:33;99928.06;;;15.68;45.37
37856;BME280;23694;43.274;26.924;2022-10-16T08:06:00;99924.59;;;15.67;43.21
37856;BME280;23694;43.274;26.924;2022-10-16T08:08:26;99927.66;;;15.85;44.16
37856;BME280;23694;43.274;26.924;2022-10-16T08:10:53;99941.06;;;16.06;43.86
37856;BME280;23694;43.274;26.924;2022-10-16T08:13:19;99942.13;;;15.68;43.10
37856;BME280;23694;43.274;26.924;2022-10-16T08:15:45;99946.66;;;15.53;41.29
37856;BME280;23694;43.274;26.924;2022-10-16T08:18:13;99942.84;;;15.94;40.35
37856;BME280;23694;43.274;26.924;2022-10-16T08:20:40;99944.75;;;15.92;39.56
37856;BME280;23694;43.274;26.924;2022-10-16T08:23:08;99938.78;;;16.01;38.93
37856;BME280;23694;43.274;26.924;2022-10-16T08:25:35;99941.47;;;16.24;39.27
37856;BME280;23694;43.274;26.924;2022-10-16T08:28:06;99944.06;;;16.47;38.74
37856;BME280;23694;43.274;26.924;2022-10-16T08:30:33;99943.53;;;16.77;39.13
37856;BME280;23694;43.274;26.924;2022-10-16T08:32:59;99937.53;;;17.09;37.51
37856;BME280;23694;43.274;26.924;2022-10-16T08:35:26;99934.53;;;17.02;37.64
37856;BME280;23694;43.274;26.924;2022-10-16T08:37:52;99941.84;;;17.21;37.60
37856;BME280;23694;43.274;26.924;2022-10-16T08:40:23;99936.53;;;17.32;36.59
37856;BME280;23694;43.274;26.924;2022-10-16T08:48:27;99925.47;;;17.27;36.91
37856;BME280;23694;43.274;26.924;2022-10-16T08:50:55;99936.44;;;17.23;37.08
37856;BME280;23694;43.274;26.924;2022-10-16T08:53:30;99947.50;;;17.28;37.25
37856;BME280;23694;43.274;26.924;2022-10-16T08:55:57;99944.00;;;17.27;36.51
37856;BME280;23694;43.274;26.924;2022-10-16T08:58:29;99953.16;;;17.12;36.74
37856;BME280;23694;43.274;26.924;2022-10-16T09:01:00;99938.59;;;16.84;37.08
37856;BME280;23694;43.274;26.924;2022-10-16T09:03:37;99940.22;;;16.52;38.11
37856;BME280;23694;43.274;26.924;2022-10-16T09:11:55;99936.75;;;16.05;38.98
37856;BME280;23694;43.274;26.924;2022-10-16T09:16:57;99943.84;;;16.62;38.15
37856;BME280;23694;43.274;26.924;2022-10-16T09:19:31;99944.28;;;16.33;38.35
37856;BME280;23694;43.274;26.924;2022-10-16T09:22:11;99949.59;;;16.33;39.10
37856;BME280;23694;43.274;26.924;2022-10-16T09:24:40;99931.19;;;16.32;37.98
37856;BME280;23694;43.274;26.924;2022-10-16T09:27:14;99939.00;;;16.33;38.29
37856;BME280;23694;43.274;26.924;2022-10-16T09:29:40;99936.88;;;16.49;38.75
37856;BME280;23694;43.274;26.924;2022-10-16T09:32:17;99936.00;;;16.38;39.34
37856;BME280;23694;43.274;26.924;2022-10-16T09:34:48;99936.00;;;16.38;39.36
37856;BME280;23694;43.274;26.924;2022-10-16T09:37:19;99928.44;;;16.44;38.05
37856;BME280;23694;43.274;26.924;2022-10-16T09:39:53;99930.66;;;16.15;38.36
37856;BME280;23694;43.274;26.924;2022-10-16T09:42:24;99932.44;;;16.15;39.09
37856;BME280;23694;43.274;26.924;2022-10-16T09:44:53;99936.38;;;16.44;38.85
37856;BME280;23694;43.274;26.924;2022-10-16T09:47:22;99930.63;;;16.62;37.22
37856;BME280;23694;43.274;26.924;2022-10-16T09:50:13;99926.53;;;16.11;38.54
37856;BME280;23694;43.274;26.924;2022-10-16T09:52:45;99928.66;;;16.30;38.80
37856;BME280;23694;43.274;26.924;2022-10-16T09:55:16;99919.56;;;16.57;37.75
37856;BME280;23694;43.274;26.924;2022-10-16T09:57:53;99923.81;;;16.82;37.75
37856;BME280;23694;43.274;26.924;2022-10-16T10:00:21;99925.63;;;17.03;37.21
37856;BME280;23694;43.274;26.924;2022-10-16T10:02:48;99911.88;;;17.21;36.95
37856;BME280;23694;43.274;26.924;2022-10-16T10:05:32;99912.44;;;17.35;36.41
37856;BME280;23694;43.274;26.924;2022-10-16T10:08:01;99915.66;;;17.50;36.38
37856;BME280;23694;43.274;26.924;2022-10-16T10:10:41;99909.31;;;17.85;35.92
37856;BME280;23694;43.274;26.924;2022-10-16T10:13:22;99918.34;;;17.82;35.36
37856;BME280;23694;43.274;26.924;2022-10-16T10:15:49;99920.38;;;17.90;35.56
37856;BME280;23694;43.274;26.924;2022-10-16T10:18:18;99926.84;;;17.54;35.66
37856;BME280;23694;43.274;26.924;2022-10-16T10:20:45;99925.72;;;17.79;35.01
37856;BME280;23694;43.274;26.924;2022-10-16T10:23:23;99915.84;;;17.81;34.98
37856;BME280;23694;43.274;26.924;2022-10-16T10:28:52;99910.91;;;17.76;34.94
37856;BME280;23694;43.274;26.924;2022-10-16T10:36:40;99914.13;;;17.36;35.11
37856;BME280;23694;43.274;26.924;2022-10-16T10:39:25;99916.75;;;17.59;34.89
37856;BME280;23694;43.274;26.924;2022-10-16T10:42:06;99908.75;;;17.27;34.27
37856;BME280;23694;43.274;26.924;2022-10-16T10:53:16;99897.09;;;17.61;34.41
37856;BME280;23694;43.274;26.924;2022-10-16T10:55:54;99890.84;;;17.62;33.62
37856;BME280;23694;43.274;26.924;2022-10-16T11:01:17;99885.56;;;17.08;34.66
37856;BME280;23694;43.274;26.924;2022-10-16T11:06:55;99880.34;;;17.72;33.20
37856;BME280;23694;43.274;26.924;2022-10-16T11:09:26;99878.66;;;17.71;33.49
37856;BME280;23694;43.274;26.924;2022-10-16T11:17:02;99880.66;;;18.20;32.70
37856;BME280;23694;43.274;26.924;2022-10-16T11:19:41;99880.81;;;18.19;32.62
37856;BME280;23694;43.274;26.924;2022-10-16T11:22:19;99890.97;;;18.14;32.72
37856;BME280;23694;43.274;26.924;2022-10-16T11:27:58;99888.75;;;17.77;32.60
37856;BME280;23694;43.274;26.924;2022-10-16T11:30:29;99879.41;;;17.62;33.14
37856;BME280;23694;43.274;26.924;2022-10-16T11:33:00;99893.41;;;17.85;32.65
37856;BME280;23694;43.274;26.924;2022-10-16T11:38:00;99892.72;;;18.03;31.97
37856;BME280;23694;43.274;26.924;2022-10-16T11:40:31;99888.19;;;18.15;31.57
37856;BME280;23694;43.274;26.924;2022-10-16T11:43:07;99888.06;;;18.17;31.22
37856;BME280;23694;43.274;26.924;2022-10-16T11:45:44;99887.44;;;18.24;31.66
37856;BME280;23694;43.274;26.924;2022-10-16T11:48:20;99893.41;;;18.47;31.67
37856;BME280;23694;43.274;26.924;2022-10-16T11:50:53;99895.97;;;18.28;31.57
37856;BME280;23694;43.274;26.924;2022-10-16T11:53:48;99897.16;;;18.03;31.63
37856;BME280;23694;43.274;26.924;2022-10-16T11:56:18;99899.88;;;17.92;31.46
37856;BME280;23694;43.274;26.924;2022-10-16T11:58:56;99900.84;;;17.70;31.75
37856;BME280;23694;43.274;26.924;2022-10-16T12:01:46;99904.53;;;17.79;31.51
37856;BME280;23694;43.274;26.924;2022-10-16T12:04:33;99900.84;;;17.91;32.12
37856;BME280;23694;43.274;26.924;2022-10-16T12:07:09;99898.97;;;18.02;31.28
37856;BME280;23694;43.274;26.924;2022-10-16T12:09:39;99902.16;;;18.17;31.45
37856;BME280;23694;43.274;26.924;2022-10-16T12:12:27;99912.88;;;17.95;31.17
37856;BME280;23694;43.274;26.924;2022-10-16T12:15:01;99910.22;;;17.63;31.45
37856;BME280;23694;43.274;26.924;2022-10-16T12:17:38;99916.88;;;17.46;31.75
37856;BME280;23694;43.274;26.924;2022-10-16T12:23:16;99914.63;;;17.85;31.41
37856;BME280;23694;43.274;26.924;2022-10-16T12:25:40;99911.75;;;17.77;31.31
37856;BME280;23694;43.274;26.924;2022-10-16T12:30:40;99914.81;;;17.50;31.39
37856;BME280;23694;43.274;26.924;2022-10-16T12:33:21;99907.22;;;17.67;30.70
37856;BME280;23694;43.274;26.924;2022-10-16T12:35:48;99908.59;;;17.39;30.70
37856;BME280;23694;43.274;26.924;2022-10-16T12:38:21;99903.78;;;17.33;31.23
37856;BME280;23694;43.274;26.924;2022-10-16T12:43:50;99909.88;;;17.67;31.65
37856;BME280;23694;43.274;26.924;2022-10-16T12:48:43;99904.88;;;18.06;30.79
37856;BME280;23694;43.274;26.924;2022-10-16T12:59:09;99909.84;;;18.20;30.00
37856;BME280;23694;43.274;26.924;2022-10-16T13:04:47;99918.13;;;18.06;29.79
37856;BME280;23694;43.274;26.924;2022-10-16T13:10:21;99929.16;;;17.47;30.92
37856;BME280;23694;43.274;26.924;2022-10-16T13:13:17;99925.41;;;17.61;31.24
37856;BME280;23694;43.274;26.924;2022-10-16T13:16:03;99916.75;;;17.91;30.18
37856;BME280;23694;43.274;26.924;2022-10-16T13:27:23;99932.06;;;17.87;29.53
37856;BME280;23694;43.274;26.924;2022-10-16T13:30:01;99925.53;;;17.59;30.32
37856;BME280;23694;43.274;26.924;2022-10-16T13:32:33;99930.94;;;17.58;30.32
37856;BME280;23694;43.274;26.924;2022-10-16T13:34:59;99926.97;;;17.63;30.62
37856;BME280;23694;43.274;26.924;2022-10-16T13:37:26;99921.13;;;17.81;30.50
37856;BME280;23694;43.274;26.924;2022-10-16T13:40:09;99922.78;;;17.93;30.74
37856;BME280;23694;43.274;26.924;2022-10-16T13:42:39;99928.19;;;17.91;29.44
37856;BME280;23694;43.274;26.924;2022-10-16T13:45:18;99919.78;;;17.86;30.07
37856;BME280;23694;43.274;26.924;2022-10-16T13:47:44;99924.44;;;17.73;30.34
37856;BME280;23694;43.274;26.924;2022-10-16T13:50:16;99925.66;;;17.69;29.78
37856;BME280;23694;43.274;26.924;2022-10-16T13:52:42;99924.69;;;17.70;30.67
37856;BME280;23694;43.274;26.924;2022-10-16T13:55:12;99919.84;;;17.75;30.41
37856;BME280;23694;43.274;26.924;2022-10-16T13:57:39;99925.66;;;17.69;30.56
37856;BME280;23694;43.274;26.924;2022-10-16T14:00:21;99934.81;;;17.42;29.77
37856;BME280;23694;43.274;26.924;2022-10-16T14:02:54;99940.47;;;17.38;30.46
37856;BME280;23694;43.274;26.924;2022-10-16T14:05:21;99930.25;;;17.44;30.22
37856;BME280;23694;43.274;26.924;2022-10-16T14:07:50;99934.91;;;17.52;30.13
37856;BME280;23694;43.274;26.924;2022-10-16T14:10:29;99935.31;;;17.36;29.89
37856;BME280;23694;43.274;26.924;2022-10-16T14:13:05;99940.88;;;17.22;30.43
37856;BME280;23694;43.274;26.924;2022-10-16T14:15:34;99945.69;;;17.17;30.09
37856;BME280;23694;43.274;26.924;2022-10-16T14:18:01;99954.59;;;17.16;30.54
37856;BME280;23694;43.274;26.924;2022-10-16T14:20:31;99950.41;;;17.14;31.12
37856;BME280;23694;43.274;26.924;2022-10-16T14:23:16;99950.75;;;17.09;31.55
37856;BME280;23694;43.274;26.924;2022-10-16T14:25:44;99951.47;;;17.11;31.34
37856;BME280;23694;43.274;26.924;2022-10-16T14:28:22;99960.88;;;17.04;31.31
37856;BME280;23694;43.274;26.924;2022-10-16T14:30:54;99954.50;;;16.95;31.39
37856;BME280;23694;43.274;26.924;2022-10-16T14:33:22;99954.47;;;16.84;31.01
37856;BME280;23694;43.274;26.924;2022-10-16T14:38:25;99962.06;;;16.77;31.74
37856;BME280;23694;43.274;26.924;2022-10-16T14:40:51;99958.56;;;16.77;31.95